createdAt,value
2019-04-29T00:02:28.073Z,100812.23
2019-04-29T00:04:57.672Z,100804.14
2019-04-29T00:07:27.364Z,100799.02
2019-04-29T00:09:56.991Z,100805.42
2019-04-29T00:12:26.955Z,100802.13
2019-04-29T00:15:00.951Z,100794.31
2019-04-29T00:17:32.178Z,100801.11
2019-04-29T00:20:12.200Z,100803.54
2019-04-29T00:22:41.794Z,100805.16
2019-04-29T00:25:11.572Z,100801.28
2019-04-29T00:27:41.198Z,100799.69
2019-04-29T00:30:13.012Z,100798.33
2019-04-29T00:32:42.620Z,100797.31
2019-04-29T00:35:12.398Z,100796.17
2019-04-29T00:37:52.321Z,100799.87
2019-04-29T00:40:40.044Z,100795.25
2019-04-29T00:43:15.437Z,100794.91
2019-04-29T00:45:45.211Z,100792.31
2019-04-29T00:48:14.814Z,100783.72
2019-04-29T00:50:44.429Z,100788.77
2019-04-29T00:53:14.030Z,100785.45
2019-04-29T00:55:43.634Z,100783.26
2019-04-29T00:58:13.216Z,100785.36
2019-04-29T01:00:43.196Z,100786.67
2019-04-29T01:03:13.558Z,100784.76
2019-04-29T01:05:43.335Z,100781.00
2019-04-29T01:08:12.923Z,100791.76
2019-04-29T01:10:42.513Z,100787.22
2019-04-29T01:13:12.115Z,100791.26
2019-04-29T01:15:41.708Z,100789.64
2019-04-29T01:18:11.475Z,100786.37
2019-04-29T01:20:41.096Z,100784.61
2019-04-29T01:23:10.717Z,100778.97
2019-04-29T01:25:41.953Z,100775.14
2019-04-29T01:28:25.302Z,100775.11
2019-04-29T01:30:59.857Z,100776.17
2019-04-29T01:33:29.462Z,100781.49
2019-04-29T01:36:16.949Z,100771.73
2019-04-29T01:38:48.839Z,100770.89
2019-04-29T01:41:20.275Z,100775.99
2019-04-29T01:44:00.552Z,100775.99
2019-04-29T01:46:30.877Z,100770.37
2019-04-29T01:49:00.536Z,100779.26
2019-04-29T01:51:30.143Z,100774.42
2019-04-29T01:53:59.801Z,100776.84
2019-04-29T01:56:29.421Z,100777.34
2019-04-29T01:58:59.014Z,100774.41
2019-04-29T02:01:28.620Z,100778.41
2019-04-29T02:03:58.216Z,100780.50
2019-04-29T02:06:28.107Z,100782.95
2019-04-29T02:08:57.773Z,100781.02
2019-04-29T02:11:27.357Z,100777.56
2019-04-29T02:13:56.960Z,100771.91
2019-04-29T02:16:26.563Z,100777.05
2019-04-29T02:18:56.174Z,100769.23
2019-04-29T02:21:25.774Z,100774.80
2019-04-29T02:23:57.008Z,100774.67
2019-04-29T02:26:26.618Z,100770.28
2019-04-29T02:28:56.212Z,100775.61
2019-04-29T02:31:42.111Z,100770.38
2019-04-29T02:34:11.771Z,100771.63
2019-04-29T02:36:41.384Z,100773.46
2019-04-29T02:39:20.126Z,100775.25
2019-04-29T02:41:53.828Z,100768.71
2019-04-29T02:44:23.411Z,100768.52
2019-04-29T02:46:53.026Z,100766.69
2019-04-29T02:49:22.632Z,100768.30
2019-04-29T02:51:55.080Z,100761.43
2019-04-29T02:54:26.325Z,100757.20
2019-04-29T02:57:13.239Z,100760.25
2019-04-29T02:59:44.471Z,100757.34
2019-04-29T03:02:31.414Z,100760.58
2019-04-29T03:05:17.340Z,100759.03
2019-04-29T03:07:46.991Z,100756.92
2019-04-29T03:10:16.985Z,100754.01
2019-04-29T03:12:46.603Z,100749.97
2019-04-29T03:15:20.781Z,100753.52
2019-04-29T03:17:50.379Z,100745.19
2019-04-29T03:20:24.462Z,100741.73
2019-04-29T03:22:55.818Z,100737.64
2019-04-29T03:25:25.420Z,100738.39
2019-04-29T03:27:55.091Z,100733.02
2019-04-29T03:30:24.692Z,100738.70
2019-04-29T03:32:54.302Z,100742.98
2019-04-29T03:35:23.888Z,100740.81
2019-04-29T03:37:53.496Z,100738.39
2019-04-29T03:40:23.114Z,100736.78
2019-04-29T03:42:52.706Z,100736.80
2019-04-29T03:45:22.313Z,100736.03
2019-04-29T03:47:51.920Z,100736.30
2019-04-29T03:50:21.523Z,100738.47
2019-04-29T03:52:51.117Z,100733.17
2019-04-29T03:55:38.324Z,100729.98
2019-04-29T03:57:52.054Z,100731.84
2019-04-29T04:00:22.002Z,100725.39
2019-04-29T04:03:05.033Z,100719.74
2019-04-29T04:05:51.281Z,100719.97
2019-04-29T04:08:37.469Z,100718.40
2019-04-29T04:11:07.076Z,100718.40
2019-04-29T04:13:36.675Z,100720.86
2019-04-29T04:16:07.921Z,100719.24
2019-04-29T04:18:37.514Z,100714.16
2019-04-29T04:21:07.186Z,100715.07
2019-04-29T04:23:36.785Z,100717.78
2019-04-29T04:26:06.399Z,100719.48
2019-04-29T04:28:35.985Z,100716.03
2019-04-29T04:31:07.007Z,100715.01
2019-04-29T04:33:37.069Z,100720.70
2019-04-29T04:36:06.675Z,100721.23
2019-04-29T04:38:36.257Z,100725.03
2019-04-29T04:41:07.503Z,100726.13
2019-04-29T04:43:37.110Z,100721.58
2019-04-29T04:46:06.716Z,100723.20
2019-04-29T04:48:36.313Z,100722.48
2019-04-29T04:51:05.917Z,100724.19
2019-04-29T04:53:35.515Z,100727.19
2019-04-29T04:56:05.189Z,100721.61
2019-04-29T04:58:34.785Z,100726.80
2019-04-29T05:01:04.406Z,100727.92
2019-04-29T05:03:34.007Z,100726.95
2019-04-29T05:06:03.614Z,100728.11
2019-04-29T05:08:33.218Z,100721.69
2019-04-29T05:11:02.846Z,100725.49
2019-04-29T05:13:32.431Z,100729.28
2019-04-29T05:16:02.047Z,100725.50
2019-04-29T05:18:31.662Z,100725.81
2019-04-29T05:21:01.267Z,100725.86
2019-04-29T05:23:30.886Z,100723.79
2019-04-29T05:26:00.488Z,100716.33
2019-04-29T05:28:30.091Z,100711.34
2019-04-29T05:30:59.725Z,100710.12
2019-04-29T05:33:29.332Z,100698.83
2019-04-29T05:36:15.273Z,100704.49
2019-04-29T05:38:48.949Z,100706.67
2019-04-29T05:41:18.931Z,100702.34
2019-04-29T05:43:56.061Z,100697.45
2019-04-29T05:46:27.304Z,100705.81
2019-04-29T05:48:56.907Z,100706.34
2019-04-29T05:51:30.611Z,100704.98
2019-04-29T05:54:04.296Z,100709.33
2019-04-29T05:56:33.915Z,100706.64
2019-04-29T05:59:03.524Z,100703.97
2019-04-29T06:01:33.132Z,100702.34
2019-04-29T06:04:02.741Z,100700.18
2019-04-29T06:06:32.370Z,100699.10
2019-04-29T06:09:01.942Z,100701.26
2019-04-29T06:11:31.549Z,100695.90
2019-04-29T06:14:01.140Z,100694.02
2019-04-29T06:16:30.760Z,100698.07
2019-04-29T06:19:03.086Z,100695.91
2019-04-29T06:21:31.750Z,100696.97
2019-04-29T06:24:04.335Z,100692.08
2019-04-29T06:26:32.679Z,100692.33
2019-04-29T06:29:05.569Z,100692.62
2019-04-29T06:31:33.599Z,100686.47
2019-04-29T06:34:05.205Z,100681.84
2019-04-29T06:36:34.615Z,100681.58
2019-04-29T06:39:05.707Z,100683.98
2019-04-29T06:41:35.328Z,100681.55
2019-04-29T06:44:06.593Z,100692.35
2019-04-29T06:46:36.282Z,100678.03
2019-04-29T06:49:10.585Z,100675.87
2019-04-29T06:51:37.251Z,100672.64
2019-04-29T06:54:06.862Z,100675.89
2019-04-29T06:56:36.491Z,100672.06
2019-04-29T06:59:07.623Z,100670.17
2019-04-29T07:01:38.629Z,100677.73
2019-04-29T07:04:08.337Z,100673.12
2019-04-29T07:06:37.955Z,100672.08
2019-04-29T07:09:08.311Z,100675.59
2019-04-29T07:11:38.578Z,100668.05
2019-04-29T07:14:08.184Z,100665.88
2019-04-29T07:16:37.809Z,100660.47
2019-04-29T07:19:07.410Z,100663.95
2019-04-29T07:21:37.091Z,100657.45
2019-04-29T07:24:06.715Z,100651.77
2019-04-29T07:26:36.317Z,100655.49
2019-04-29T07:29:05.942Z,100653.87
2019-04-29T07:31:35.566Z,100655.23
2019-04-29T07:34:08.139Z,100659.06
2019-04-29T07:36:36.526Z,100655.56
2019-04-29T07:39:08.054Z,100651.03
2019-04-29T07:41:37.656Z,100651.05
2019-04-29T07:44:07.262Z,100643.21
2019-04-29T07:47:00.253Z,100639.97
2019-04-29T07:49:24.818Z,100646.73
2019-04-29T07:51:54.441Z,100640.78
2019-04-29T07:54:24.033Z,100641.06
2019-04-29T07:56:53.632Z,100641.60
2019-04-29T07:59:23.245Z,100647.78
2019-04-29T08:01:55.787Z,100643.74
2019-04-29T08:04:24.364Z,100641.33
2019-04-29T08:06:55.305Z,100639.70
2019-04-29T08:09:25.263Z,100640.78
2019-04-29T08:11:55.717Z,100647.80
2019-04-29T08:14:28.409Z,100650.23
2019-04-29T08:16:58.016Z,100645.11
2019-04-29T08:19:29.318Z,100647.81
2019-04-29T08:21:58.971Z,100642.12
2019-04-29T08:24:28.601Z,100647.80
2019-04-29T08:26:58.192Z,100641.82
2019-04-29T08:29:30.718Z,100642.93
2019-04-29T08:32:02.206Z,100631.58
2019-04-29T08:34:30.502Z,100621.89
2019-04-29T08:37:00.119Z,100616.48
2019-04-29T08:39:31.204Z,100603.52
2019-04-29T08:42:03.728Z,100594.61
2019-04-29T08:44:38.099Z,100586.78
2019-04-29T08:47:23.625Z,100587.30
2019-04-29T08:49:52.731Z,100585.97
2019-04-29T08:52:22.329Z,100597.83
2019-04-29T08:54:55.417Z,100604.61
2019-04-29T08:57:23.271Z,100610.53
2019-04-29T08:59:52.879Z,100609.46
2019-04-29T09:02:34.348Z,100611.62
2019-04-29T09:04:54.119Z,100616.20
2019-04-29T09:07:23.826Z,100611.34
2019-04-29T09:09:56.154Z,100608.11
2019-04-29T09:12:29.035Z,100601.10
2019-04-29T09:14:56.112Z,100606.77
2019-04-29T09:17:25.717Z,100596.48
2019-04-29T09:19:55.304Z,100591.36
2019-04-29T09:22:26.545Z,100584.62
2019-04-29T09:24:57.806Z,100578.40
2019-04-29T09:27:27.436Z,100571.41
2019-04-29T09:29:58.881Z,100570.59
2019-04-29T09:32:28.667Z,100566.00
2019-04-29T09:34:59.464Z,100561.95
2019-04-29T09:37:29.249Z,100571.41
2019-04-29T09:39:58.855Z,100567.33
2019-04-29T09:42:31.076Z,100570.56
2019-04-29T09:45:08.441Z,100565.17
2019-04-29T09:47:38.055Z,100572.49
2019-04-29T09:50:08.654Z,100553.58
2019-04-29T09:52:38.277Z,100556.83
2019-04-29T09:55:08.128Z,100557.89
2019-04-29T09:57:37.734Z,100562.49
2019-04-29T10:00:14.810Z,100570.58
2019-04-29T10:02:46.129Z,100568.16
2019-04-29T10:05:17.869Z,100558.16
2019-04-29T10:07:47.540Z,100559.20
2019-04-29T10:10:17.338Z,100557.81
2019-04-29T10:12:46.998Z,100561.57
2019-04-29T10:15:18.493Z,100556.97
2019-04-29T10:17:50.789Z,100549.17
2019-04-29T10:20:29.427Z,100552.92
2019-04-29T10:22:59.051Z,100547.27
2019-04-29T10:25:28.728Z,100555.62
2019-04-29T10:27:58.341Z,100549.70
2019-04-29T10:30:31.141Z,100549.96
2019-04-29T10:33:00.929Z,100543.22
2019-04-29T10:35:30.535Z,100554.56
2019-04-29T10:38:02.911Z,100555.64
2019-04-29T10:40:48.244Z,100552.95
2019-04-29T10:43:19.520Z,100551.89
2019-04-29T10:46:06.060Z,100545.94
2019-04-29T10:48:40.247Z,100542.45
2019-04-29T10:51:11.800Z,100528.67
2019-04-29T10:53:41.413Z,100530.84
2019-04-29T10:56:11.268Z,100522.74
2019-04-29T10:58:40.863Z,100520.91
2019-04-29T11:02:00.365Z,100520.65
2019-04-29T11:04:18.594Z,100524.67
2019-04-29T11:06:48.348Z,100517.09
2019-04-29T11:09:22.458Z,100513.30
2019-04-29T11:11:52.086Z,100498.78
2019-04-29T11:14:24.663Z,100506.91
2019-04-29T11:16:53.170Z,100505.55
2019-04-29T11:19:22.778Z,100505.53
2019-04-29T11:21:52.550Z,100499.32
2019-04-29T11:24:32.334Z,100489.09
2019-04-29T11:27:11.531Z,100483.16
2019-04-29T11:29:35.814Z,100477.22
2019-04-29T11:32:06.765Z,100474.23
2019-04-29T11:34:38.018Z,100472.36
2019-04-29T11:37:09.263Z,100480.44
2019-04-29T11:39:38.859Z,100475.06
2019-04-29T11:42:09.974Z,100472.10
2019-04-29T11:44:39.738Z,100470.47
2019-04-29T11:47:09.348Z,100469.11
2019-04-29T11:49:40.579Z,100464.52
2019-04-29T11:52:10.467Z,100462.37
2019-04-29T11:54:40.197Z,100469.92
2019-04-29T11:57:11.500Z,100463.18
2019-04-29T11:59:51.602Z,100474.78
2019-04-29T12:02:39.409Z,100474.23
2019-04-29T12:04:56.159Z,100474.53
2019-04-29T12:07:32.096Z,100471.00
2019-04-29T12:09:57.130Z,100460.47
2019-04-29T12:12:26.796Z,100462.36
2019-04-29T12:15:01.548Z,100460.49
2019-04-29T12:17:35.374Z,100467.77
2019-04-29T12:20:13.146Z,100463.72
2019-04-29T12:22:48.448Z,100468.02
2019-04-29T12:25:14.347Z,100462.91
2019-04-29T12:27:44.096Z,100471.83
2019-04-29T12:30:16.941Z,100463.17
2019-04-29T12:32:51.016Z,100466.41
2019-04-29T12:35:30.169Z,100471.81
2019-04-29T12:38:05.827Z,100464.27
2019-04-29T12:40:50.163Z,100462.08
2019-04-29T12:43:20.667Z,100463.15
2019-04-29T12:45:53.682Z,100466.95
2019-04-29T12:48:24.964Z,100459.91
2019-04-29T12:50:57.452Z,100459.91
2019-04-29T12:53:25.933Z,100461.00
2019-04-29T12:55:57.229Z,100458.84
2019-04-29T12:58:27.074Z,100461.00
2019-04-29T13:01:01.231Z,100457.77
2019-04-29T13:03:39.720Z,100452.88
2019-04-29T13:06:09.581Z,100459.62
2019-04-29T13:08:40.467Z,100448.55
2019-04-29T13:11:10.231Z,100449.58
2019-04-29T13:13:39.838Z,100452.53
2019-04-29T13:16:20.196Z,100451.47
2019-04-29T13:18:53.884Z,100441.47
2019-04-29T13:21:21.189Z,100448.22
2019-04-29T13:24:05.011Z,100448.48
2019-04-29T13:26:28.164Z,100446.61
2019-04-29T13:29:00.379Z,100444.72
2019-04-29T13:31:37.493Z,100439.31
2019-04-29T13:34:03.371Z,100438.48
2019-04-29T13:36:29.176Z,100441.72
2019-04-29T13:38:58.797Z,100438.98
2019-04-29T13:41:28.760Z,100443.28
2019-04-29T13:44:05.319Z,100441.66
2019-04-29T13:46:51.246Z,100435.44
2019-04-29T13:49:20.060Z,100433.27
2019-04-29T13:51:51.411Z,100433.53
2019-04-29T13:54:20.999Z,100441.09
2019-04-29T13:56:56.166Z,100439.47
2019-04-29T13:59:26.484Z,100426.52
2019-04-29T14:02:05.623Z,100433.28
2019-04-29T14:04:35.952Z,100430.86
2019-04-29T14:10:51.126Z,100433.05
2019-04-29T14:13:21.146Z,100425.27
2019-04-29T14:15:50.524Z,100427.42
2019-04-29T14:18:20.132Z,100415.27
2019-04-29T14:20:51.781Z,100416.89
2019-04-29T14:23:22.676Z,100415.52
2019-04-29T14:25:52.321Z,100423.07
2019-04-29T14:28:21.911Z,100415.77
2019-04-29T14:30:51.527Z,100413.91
2019-04-29T14:33:24.208Z,100409.02
2019-04-29T14:35:55.786Z,100410.61
2019-04-29T14:38:25.382Z,100411.43
2019-04-29T14:40:55.018Z,100407.66
2019-04-29T14:43:42.222Z,100412.77
2019-04-29T14:46:17.288Z,100406.52
2019-04-29T14:49:05.800Z,100414.55
2019-04-29T14:51:36.904Z,100411.81
2019-04-29T14:54:07.549Z,100418.02
2019-04-29T14:56:37.265Z,100414.23
2019-04-29T14:59:07.691Z,100416.98
2019-04-29T15:01:39.105Z,100419.69
2019-04-29T15:04:18.300Z,100421.31
2019-04-29T15:06:44.585Z,100418.87
2019-04-29T15:09:17.763Z,100421.27
2019-04-29T15:11:47.474Z,100423.42
2019-04-29T15:17:02.442Z,100423.97
2019-04-29T15:19:49.256Z,100425.30
2019-04-29T15:22:18.391Z,100422.91
2019-04-29T15:24:48.011Z,100423.42
2019-04-29T15:27:17.963Z,100429.34
2019-04-29T15:29:47.581Z,100426.38
2019-04-29T15:32:22.032Z,100428.78
2019-04-29T15:34:49.778Z,100431.20
2019-04-29T15:37:19.588Z,100435.81
2019-04-29T15:39:49.202Z,100423.97
2019-04-29T15:42:18.831Z,100428.33
2019-04-29T15:44:51.623Z,100431.05
2019-04-29T15:47:20.421Z,100427.83
2019-04-29T15:49:50.013Z,100432.14
2019-04-29T15:52:21.129Z,100429.16
2019-04-29T15:54:52.424Z,100431.31
2019-04-29T15:57:22.648Z,100435.81
2019-04-29T15:59:58.634Z,100436.08
2019-04-29T16:02:23.753Z,100444.45
2019-04-29T16:05:04.645Z,100445.52
2019-04-29T16:07:51.513Z,100441.44
2019-04-29T16:10:24.233Z,100449.56
2019-04-29T16:13:01.404Z,100442.26
2019-04-29T16:15:31.011Z,100446.55
2019-04-29T16:18:05.154Z,100441.05
2019-04-29T16:20:31.973Z,100443.95
2019-04-29T16:23:02.214Z,100441.20
2019-04-29T16:25:31.889Z,100448.41
2019-04-29T16:28:01.528Z,100442.41
2019-04-29T16:30:31.996Z,100436.69
2019-04-29T16:33:13.335Z,100445.06
2019-04-29T16:35:34.817Z,100441.09
2019-04-29T16:38:11.169Z,100438.44
2019-04-29T16:40:39.251Z,100437.39
2019-04-29T16:43:16.633Z,100437.42
2019-04-29T16:45:55.444Z,100436.58
2019-04-29T16:48:25.126Z,100440.05
2019-04-29T16:50:54.808Z,100438.91
2019-04-29T16:53:24.436Z,100434.86
2019-04-29T16:55:54.092Z,100439.92
2019-04-29T16:58:23.690Z,100440.72
2019-04-29T17:00:54.874Z,100437.44
2019-04-29T17:03:32.388Z,100440.72
2019-04-29T17:10:46.966Z,100444.61
2019-04-29T17:13:25.812Z,100449.28
2019-04-29T17:15:55.433Z,100459.38
2019-04-29T17:18:25.050Z,100461.05
2019-04-29T17:21:21.891Z,100455.92
2019-04-29T17:41:18.958Z,100465.39
2019-04-29T18:06:41.622Z,100459.51
2019-04-29T18:09:25.950Z,100461.19
2019-04-29T18:19:12.036Z,100469.31
2019-04-29T18:21:59.240Z,100463.38
2019-04-29T19:15:46.989Z,100497.86
2019-04-29T19:53:00.633Z,100514.43
2019-04-29T20:07:09.025Z,100513.27
2019-04-29T20:14:02.215Z,100509.49
2019-04-29T20:17:20.866Z,100511.94
2019-04-29T20:31:25.903Z,100530.14
2019-04-29T20:47:22.124Z,100529.31
2019-04-29T20:57:25.846Z,100544.05
2019-04-29T21:01:18.444Z,100540.75
2019-04-29T21:12:38.566Z,100546.60
2019-04-29T21:25:17.524Z,100554.41
2019-04-29T21:34:11.155Z,100554.51
2019-04-29T21:37:01.729Z,100559.00
2019-04-29T21:39:37.796Z,100559.76
2019-04-29T21:42:29.765Z,100561.11
2019-04-29T21:44:58.584Z,100565.44
2019-04-29T21:47:32.061Z,100566.19
2019-04-29T21:49:59.502Z,100565.36
2019-04-29T21:52:29.108Z,100570.22
2019-04-29T21:54:58.724Z,100562.87
2019-04-29T21:57:28.327Z,100566.95
2019-04-29T21:59:57.960Z,100566.64
2019-04-29T22:02:27.536Z,100569.83
2019-04-29T22:04:57.152Z,100568.80
2019-04-29T22:07:26.757Z,100567.14
2019-04-29T22:09:56.897Z,100571.91
2019-04-29T22:12:26.499Z,100574.02
2019-04-29T22:14:56.538Z,100576.11
2019-04-29T22:17:32.801Z,100577.39
2019-04-29T22:20:04.251Z,100577.86
2019-04-29T22:22:30.709Z,100578.36
2019-04-29T22:25:06.014Z,100579.53
2019-04-29T22:27:38.747Z,100582.43
2019-04-29T22:30:05.823Z,100584.45
2019-04-29T22:32:35.518Z,100581.69
2019-04-29T22:35:09.228Z,100581.45
2019-04-29T22:37:38.839Z,100580.83
2019-04-29T22:40:11.645Z,100586.08
2019-04-29T22:42:48.888Z,100584.36
2019-04-29T22:45:19.058Z,100582.66
2019-04-29T22:47:48.654Z,100583.41
2019-04-29T22:50:18.269Z,100585.47
2019-04-29T22:52:47.875Z,100581.38
2019-04-29T22:55:17.491Z,100576.72
2019-04-29T22:57:47.087Z,100583.98
2019-04-29T23:00:18.669Z,100588.24
2019-04-29T23:02:48.257Z,100589.97
2019-04-29T23:05:17.870Z,100592.20
2019-04-29T23:07:47.481Z,100594.24
2019-04-29T23:10:19.923Z,100592.90
2019-04-29T23:12:49.325Z,100591.25
2019-04-29T23:15:23.590Z,100589.64
2019-04-29T23:17:50.903Z,100591.56
2019-04-29T23:20:28.857Z,100594.31
2019-04-29T23:22:58.814Z,100589.64
2019-04-29T23:25:32.859Z,100592.21
2019-04-29T23:28:02.455Z,100591.45
2019-04-29T23:30:32.076Z,100593.48
2019-04-29T23:33:01.669Z,100595.51
2019-04-29T23:35:31.279Z,100598.80
2019-04-29T23:38:04.182Z,100595.02
2019-04-29T23:40:32.233Z,100593.53
2019-04-29T23:43:01.852Z,100599.33
2019-04-29T23:45:31.464Z,100590.39
2019-04-29T23:48:01.060Z,100595.95
2019-04-29T23:50:30.709Z,100590.83
2019-04-29T23:53:00.306Z,100588.39
2019-04-29T23:55:29.930Z,100587.05
2019-04-29T23:58:03.862Z,100594.34
